sensor_id;sensor_type;location;lat;lon;timestamp;temperature;humidity
1950;DHT22;975;48.760;9.152;2022-11-30T00:02:15;8.00;99.90
1950;DHT22;975;48.760;9.152;2022-11-30T00:05:03;8.00;99.90
1950;DHT22;975;48.760;9.152;2022-11-30T00:07:50;8.00;99.90
1950;DHT22;975;48.760;9.152;2022-11-30T00:10:40;7.90;99.90
1950;DHT22;975;48.760;9.152;2022-11-30T00:13:29;7.90;99.90
1950;DHT22;975;48.760;9.152;2022-11-30T00:16:16;7.70;99.90
1950;DHT22;975;48.760;9.152;2022-11-30T00:19:04;7.70;99.90
1950;DHT22;975;48.760;9.152;2022-11-30T00:21:51;7.60;99.90
1950;DHT22;975;48.760;9.152;2022-11-30T00:24:39;7.50;99.90
1950;DHT22;975;48.760;9.152;2022-11-30T00:27:26;7.50;99.90
1950;DHT22;975;48.760;9.152;2022-11-30T00:30:17;7.50;99.90
1950;DHT22;975;48.760;9.152;2022-11-30T00:33:04;7.60;99.90
1950;DHT22;975;48.760;9.152;2022-11-30T00:35:56;7.60;99.90
1950;DHT22;975;48.760;9.152;2022-11-30T00:38:44;7.70;99.90
1950;DHT22;975;48.760;9.152;2022-11-30T00:41:32;7.80;99.90
1950;DHT22;975;48.760;9.152;2022-11-30T00:44:19;7.80;99.90
1950;DHT22;975;48.760;9.152;2022-11-30T00:47:08;7.90;99.90
1950;DHT22;975;48.760;9.152;2022-11-30T00:49:56;7.90;99.90
1950;DHT22;975;48.760;9.152;2022-11-30T00:52:43;7.90;99.90
1950;DHT22;975;48.760;9.152;2022-11-30T00:55:31;7.90;99.90
1950;DHT22;975;48.760;9.152;2022-11-30T00:58:18;7.90;99.90
1950;DHT22;975;48.760;9.152;2022-11-30T01:01:06;7.90;99.90
1950;DHT22;975;48.760;9.152;2022-11-30T01:03:55;7.90;99.90
1950;DHT22;975;48.760;9.152;2022-11-30T01:06:43;7.80;99.90
1950;DHT22;975;48.760;9.152;2022-11-30T01:09:30;7.60;99.90
1950;DHT22;975;48.760;9.152;2022-11-30T01:12:18;7.40;99.90
1950;DHT22;975;48.760;9.152;2022-11-30T01:15:06;7.50;99.90
1950;DHT22;975;48.760;9.152;2022-11-30T01:17:54;7.50;99.90
1950;DHT22;975;48.760;9.152;2022-11-30T01:20:42;7.50;99.90
1950;DHT22;975;48.760;9.152;2022-11-30T01:23:30;7.40;99.90
1950;DHT22;975;48.760;9.152;2022-11-30T01:26:18;7.30;99.90
1950;DHT22;975;48.760;9.152;2022-11-30T01:29:05;7.30;99.90
1950;DHT22;975;48.760;9.152;2022-11-30T01:31:53;7.30;99.90
1950;DHT22;975;48.760;9.152;2022-11-30T01:34:40;7.30;99.90
1950;DHT22;975;48.760;9.152;2022-11-30T01:37:29;7.40;99.90
1950;DHT22;975;48.760;9.152;2022-11-30T01:40:17;7.50;99.90
1950;DHT22;975;48.760;9.152;2022-11-30T01:43:08;7.50;99.90
1950;DHT22;975;48.760;9.152;2022-11-30T01:45:56;7.50;99.90
1950;DHT22;975;48.760;9.152;2022-11-30T01:48:44;7.50;99.90
1950;DHT22;975;48.760;9.152;2022-11-30T01:51:37;7.60;99.90
1950;DHT22;975;48.760;9.152;2022-11-30T01:54:31;7.60;99.90
1950;DHT22;975;48.760;9.152;2022-11-30T01:57:23;7.60;99.90
1950;DHT22;975;48.760;9.152;2022-11-30T02:00:16;7.60;99.90
1950;DHT22;975;48.760;9.152;2022-11-30T02:03:06;7.60;99.90
1950;DHT22;975;48.760;9.152;2022-11-30T02:05:56;7.70;99.90
1950;DHT22;975;48.760;9.152;2022-11-30T02:08:44;7.70;99.90
1950;DHT22;975;48.760;9.152;2022-11-30T02:11:33;7.80;99.90
1950;DHT22;975;48.760;9.152;2022-11-30T02:14:26;7.80;99.90
1950;DHT22;975;48.760;9.152;2022-11-30T02:17:21;7.60;99.90
1950;DHT22;975;48.760;9.152;2022-11-30T02:20:29;7.60;99.90
1950;DHT22;975;48.760;9.152;2022-11-30T02:23:40;7.60;99.90
1950;DHT22;975;48.760;9.152;2022-11-30T02:26:45;7.70;99.90
1950;DHT22;975;48.760;9.152;2022-11-30T02:29:40;7.70;99.90
1950;DHT22;975;48.760;9.152;2022-11-30T02:32:31;7.60;99.90
1950;DHT22;975;48.760;9.152;2022-11-30T02:35:21;7.50;99.90
1950;DHT22;975;48.760;9.152;2022-11-30T02:38:11;7.50;99.90
1950;DHT22;975;48.760;9.152;2022-11-30T02:40:59;7.50;99.90
1950;DHT22;975;48.760;9.152;2022-11-30T02:43:47;7.50;99.90
1950;DHT22;975;48.760;9.152;2022-11-30T02:46:44;7.60;99.90
1950;DHT22;975;48.760;9.152;2022-11-30T02:49:38;7.60;99.90
1950;DHT22;975;48.760;9.152;2022-11-30T02:52:29;7.70;99.90
1950;DHT22;975;48.760;9.152;2022-11-30T02:55:18;7.80;99.90
1950;DHT22;975;48.760;9.152;2022-11-30T02:58:06;7.70;99.90
1950;DHT22;975;48.760;9.152;2022-11-30T03:00:54;7.60;99.90
1950;DHT22;975;48.760;9.152;2022-11-30T03:03:43;7.60;99.90
1950;DHT22;975;48.760;9.152;2022-11-30T03:06:31;7.60;99.90
1950;DHT22;975;48.760;9.152;2022-11-30T03:09:18;7.60;99.90
1950;DHT22;975;48.760;9.152;2022-11-30T03:12:06;7.50;99.90
1950;DHT22;975;48.760;9.152;2022-11-30T03:14:53;7.50;99.90
1950;DHT22;975;48.760;9.152;2022-11-30T03:17:41;7.60;99.90
1950;DHT22;975;48.760;9.152;2022-11-30T03:20:30;7.50;99.90
1950;DHT22;975;48.760;9.152;2022-11-30T03:23:18;7.40;99.90
1950;DHT22;975;48.760;9.152;2022-11-30T03:26:06;7.40;99.90
1950;DHT22;975;48.760;9.152;2022-11-30T03:28:54;7.50;99.90
1950;DHT22;975;48.760;9.152;2022-11-30T03:31:41;7.50;99.90
1950;DHT22;975;48.760;9.152;2022-11-30T03:34:29;7.60;99.90
1950;DHT22;975;48.760;9.152;2022-11-30T03:37:18;7.70;99.90
1950;DHT22;975;48.760;9.152;2022-11-30T03:40:06;7.70;99.90
1950;DHT22;975;48.760;9.152;2022-11-30T03:42:54;7.50;99.90
1950;DHT22;975;48.760;9.152;2022-11-30T03:45:44;7.50;99.90
1950;DHT22;975;48.760;9.152;2022-11-30T03:48:31;7.60;99.90
1950;DHT22;975;48.760;9.152;2022-11-30T03:51:22;7.70;99.90
1950;DHT22;975;48.760;9.152;2022-11-30T03:54:11;7.80;99.90
1950;DHT22;975;48.760;9.152;2022-11-30T03:56:58;7.90;99.90
1950;DHT22;975;48.760;9.152;2022-11-30T03:59:46;7.90;99.90
1950;DHT22;975;48.760;9.152;2022-11-30T04:02:33;8.00;99.90
1950;DHT22;975;48.760;9.152;2022-11-30T04:05:21;8.00;99.90
1950;DHT22;975;48.760;9.152;2022-11-30T04:08:08;8.00;99.90
1950;DHT22;975;48.760;9.152;2022-11-30T04:10:59;8.00;99.90
1950;DHT22;975;48.760;9.152;2022-11-30T04:13:46;7.90;99.90
1950;DHT22;975;48.760;9.152;2022-11-30T04:16:34;7.80;99.90
1950;DHT22;975;48.760;9.152;2022-11-30T04:19:21;7.60;99.90
1950;DHT22;975;48.760;9.152;2022-11-30T04:28:22;7.70;99.90
1950;DHT22;975;48.760;9.152;2022-11-30T04:31:10;7.70;99.90
1950;DHT22;975;48.760;9.152;2022-11-30T04:33:58;7.60;99.90
1950;DHT22;975;48.760;9.152;2022-11-30T04:36:45;7.50;99.90
1950;DHT22;975;48.760;9.152;2022-11-30T04:39:33;7.50;99.90
1950;DHT22;975;48.760;9.152;2022-11-30T04:42:21;7.50;99.90
1950;DHT22;975;48.760;9.152;2022-11-30T04:45:11;7.60;99.90
1950;DHT22;975;48.760;9.152;2022-11-30T04:47:58;7.70;99.90
1950;DHT22;975;48.760;9.152;2022-11-30T04:51:15;7.70;99.90
1950;DHT22;975;48.760;9.152;2022-11-30T04:54:03;7.80;99.90
1950;DHT22;975;48.760;9.152;2022-11-30T04:56:51;7.80;99.90
1950;DHT22;975;48.760;9.152;2022-11-30T05:03:33;7.70;99.90
1950;DHT22;975;48.760;9.152;2022-11-30T05:24:26;8.00;99.90
1950;DHT22;975;48.760;9.152;2022-11-30T05:31:01;7.90;99.90
1950;DHT22;975;48.760;9.152;2022-11-30T05:33:50;7.90;99.90
1950;DHT22;975;48.760;9.152;2022-11-30T05:40:22;7.90;99.90
1950;DHT22;975;48.760;9.152;2022-11-30T05:43:11;7.90;99.90
1950;DHT22;975;48.760;9.152;2022-11-30T05:45:59;8.00;99.90
1950;DHT22;975;48.760;9.152;2022-11-30T05:48:48;8.00;99.90
1950;DHT22;975;48.760;9.152;2022-11-30T05:51:35;8.00;99.90
1950;DHT22;975;48.760;9.152;2022-11-30T05:54:23;8.10;99.90
1950;DHT22;975;48.760;9.152;2022-11-30T05:57:44;8.00;99.90
1950;DHT22;975;48.760;9.152;2022-11-30T06:00:32;8.00;99.90
1950;DHT22;975;48.760;9.152;2022-11-30T06:03:20;8.00;99.90
1950;DHT22;975;48.760;9.152;2022-11-30T06:06:08;8.10;99.90
1950;DHT22;975;48.760;9.152;2022-11-30T06:09:19;8.10;99.90
1950;DHT22;975;48.760;9.152;2022-11-30T06:12:25;8.20;99.90
1950;DHT22;975;48.760;9.152;2022-11-30T06:15:14;8.20;99.90
1950;DHT22;975;48.760;9.152;2022-11-30T06:18:02;8.20;99.90
1950;DHT22;975;48.760;9.152;2022-11-30T06:20:59;8.20;99.90
1950;DHT22;975;48.760;9.152;2022-11-30T06:23:47;8.20;99.90
1950;DHT22;975;48.760;9.152;2022-11-30T06:26:35;8.00;99.90
1950;DHT22;975;48.760;9.152;2022-11-30T06:29:26;7.90;99.90
1950;DHT22;975;48.760;9.152;2022-11-30T06:32:15;7.90;99.90
1950;DHT22;975;48.760;9.152;2022-11-30T06:35:03;7.90;99.90
1950;DHT22;975;48.760;9.152;2022-11-30T06:37:51;7.90;99.90
1950;DHT22;975;48.760;9.152;2022-11-30T06:40:40;7.90;99.90
1950;DHT22;975;48.760;9.152;2022-11-30T06:43:32;7.90;99.90
1950;DHT22;975;48.760;9.152;2022-11-30T06:46:19;7.90;99.90
1950;DHT22;975;48.760;9.152;2022-11-30T06:49:09;7.80;99.90
1950;DHT22;975;48.760;9.152;2022-11-30T06:52:03;7.70;99.90
1950;DHT22;975;48.760;9.152;2022-11-30T06:54:51;7.60;99.90
1950;DHT22;975;48.760;9.152;2022-11-30T06:57:39;7.70;99.90
1950;DHT22;975;48.760;9.152;2022-11-30T07:05:33;7.80;99.90
1950;DHT22;975;48.760;9.152;2022-11-30T07:08:25;7.80;99.90
1950;DHT22;975;48.760;9.152;2022-11-30T07:11:13;7.80;99.90
1950;DHT22;975;48.760;9.152;2022-11-30T07:14:01;7.90;99.90
1950;DHT22;975;48.760;9.152;2022-11-30T07:20:32;8.00;99.90
1950;DHT22;975;48.760;9.152;2022-11-30T07:27:02;8.20;99.90
1950;DHT22;975;48.760;9.152;2022-11-30T07:30:03;8.10;99.90
1950;DHT22;975;48.760;9.152;2022-11-30T07:32:51;8.20;99.90
1950;DHT22;975;48.760;9.152;2022-11-30T07:35:40;8.20;99.90
1950;DHT22;975;48.760;9.152;2022-11-30T07:38:53;8.30;99.90
1950;DHT22;975;48.760;9.152;2022-11-30T07:45:23;8.30;99.90
1950;DHT22;975;48.760;9.152;2022-11-30T07:51:55;8.40;99.90
1950;DHT22;975;48.760;9.152;2022-11-30T07:54:42;8.40;99.90
1950;DHT22;975;48.760;9.152;2022-11-30T07:57:30;8.40;99.90
1950;DHT22;975;48.760;9.152;2022-11-30T08:10:35;8.60;99.90
1950;DHT22;975;48.760;9.152;2022-11-30T08:20:30;8.80;99.90
1950;DHT22;975;48.760;9.152;2022-11-30T08:27:03;8.90;99.90
1950;DHT22;975;48.760;9.152;2022-11-30T08:29:51;8.90;99.90
1950;DHT22;975;48.760;9.152;2022-11-30T08:32:38;9.00;99.90
1950;DHT22;975;48.760;9.152;2022-11-30T08:46:36;8.80;99.90
1950;DHT22;975;48.760;9.152;2022-11-30T08:49:24;8.90;99.90
1950;DHT22;975;48.760;9.152;2022-11-30T08:52:11;9.00;99.90
1950;DHT22;975;48.760;9.152;2022-11-30T08:54:59;8.90;99.90
1950;DHT22;975;48.760;9.152;2022-11-30T09:34:56;9.60;99.90
1950;DHT22;975;48.760;9.152;2022-11-30T09:56:20;9.60;99.90
1950;DHT22;975;48.760;9.152;2022-11-30T09:59:16;9.50;99.90
1950;DHT22;975;48.760;9.152;2022-11-30T10:02:14;9.50;99.90
1950;DHT22;975;48.760;9.152;2022-11-30T10:05:05;9.50;99.90
1950;DHT22;975;48.760;9.152;2022-11-30T10:08:14;9.50;99.90
1950;DHT22;975;48.760;9.152;2022-11-30T10:15:13;9.60;99.90
1950;DHT22;975;48.760;9.152;2022-11-30T10:18:09;9.70;99.90
1950;DHT22;975;48.760;9.152;2022-11-30T10:21:07;9.80;99.90
1950;DHT22;975;48.760;9.152;2022-11-30T10:24:14;9.90;99.90
1950;DHT22;975;48.760;9.152;2022-11-30T10:27:27;10.00;99.90
1950;DHT22;975;48.760;9.152;2022-11-30T10:30:28;10.00;99.90
1950;DHT22;975;48.760;9.152;2022-11-30T10:33:19;9.90;99.90
1950;DHT22;975;48.760;9.152;2022-11-30T10:36:12;9.80;99.90
1950;DHT22;975;48.760;9.152;2022-11-30T10:39:04;9.80;99.90
1950;DHT22;975;48.760;9.152;2022-11-30T10:41:58;9.90;99.90
1950;DHT22;975;48.760;9.152;2022-11-30T10:44:52;9.90;99.90
1950;DHT22;975;48.760;9.152;2022-11-30T10:47:49;10.00;99.90
1950;DHT22;975;48.760;9.152;2022-11-30T10:50:39;10.00;99.90
1950;DHT22;975;48.760;9.152;2022-11-30T10:53:27;10.00;99.90
1950;DHT22;975;48.760;9.152;2022-11-30T10:56:15;9.90;99.90
1950;DHT22;975;48.760;9.152;2022-11-30T10:59:08;9.90;99.90
1950;DHT22;975;48.760;9.152;2022-11-30T11:01:58;9.60;99.90
1950;DHT22;975;48.760;9.152;2022-11-30T11:04:52;9.30;99.90
1950;DHT22;975;48.760;9.152;2022-11-30T11:07:55;9.00;99.90
1950;DHT22;975;48.760;9.152;2022-11-30T11:10:45;8.90;99.90
1950;DHT22;975;48.760;9.152;2022-11-30T11:13:36;8.80;99.90
1950;DHT22;975;48.760;9.152;2022-11-30T11:16:24;8.80;99.90
1950;DHT22;975;48.760;9.152;2022-11-30T11:19:22;8.90;99.90
1950;DHT22;975;48.760;9.152;2022-11-30T11:22:17;9.10;99.90
1950;DHT22;975;48.760;9.152;2022-11-30T11:25:10;9.20;99.90
1950;DHT22;975;48.760;9.152;2022-11-30T11:28:07;9.30;99.90
1950;DHT22;975;48.760;9.152;2022-11-30T11:30:59;9.30;99.90
1950;DHT22;975;48.760;9.152;2022-11-30T11:34:02;9.30;99.90
1950;DHT22;975;48.760;9.152;2022-11-30T11:37:03;9.50;99.90
1950;DHT22;975;48.760;9.152;2022-11-30T11:40:01;9.20;99.90
1950;DHT22;975;48.760;9.152;2022-11-30T11:42:52;9.00;99.90
1950;DHT22;975;48.760;9.152;2022-11-30T11:45:40;9.00;99.90
1950;DHT22;975;48.760;9.152;2022-11-30T11:48:36;8.90;99.90
1950;DHT22;975;48.760;9.152;2022-11-30T11:51:30;9.10;99.90
1950;DHT22;975;48.760;9.152;2022-11-30T11:54:22;9.10;99.90
1950;DHT22;975;48.760;9.152;2022-11-30T11:57:16;9.00;99.90
1950;DHT22;975;48.760;9.152;2022-11-30T12:00:10;9.00;99.90
1950;DHT22;975;48.760;9.152;2022-11-30T12:03:07;9.10;99.90
1950;DHT22;975;48.760;9.152;2022-11-30T12:06:02;9.10;99.90
1950;DHT22;975;48.760;9.152;2022-11-30T12:08:54;9.10;99.90
1950;DHT22;975;48.760;9.152;2022-11-30T12:11:45;9.20;99.90
1950;DHT22;975;48.760;9.152;2022-11-30T12:14:34;9.30;99.90
1950;DHT22;975;48.760;9.152;2022-11-30T12:17:38;9.40;99.90
1950;DHT22;975;48.760;9.152;2022-11-30T12:20:38;9.30;99.90
1950;DHT22;975;48.760;9.152;2022-11-30T12:23:48;9.40;99.90
1950;DHT22;975;48.760;9.152;2022-11-30T12:26:40;9.40;99.90
1950;DHT22;975;48.760;9.152;2022-11-30T12:29:42;9.40;99.90
1950;DHT22;975;48.760;9.152;2022-11-30T12:32:49;9.30;99.90
1950;DHT22;975;48.760;9.152;2022-11-30T12:35:49;9.20;99.90
1950;DHT22;975;48.760;9.152;2022-11-30T12:38:46;9.20;99.90
1950;DHT22;975;48.760;9.152;2022-11-30T12:41:38;9.30;99.90
1950;DHT22;975;48.760;9.152;2022-11-30T12:44:39;9.30;99.90
1950;DHT22;975;48.760;9.152;2022-11-30T12:47:38;9.30;99.90
1950;DHT22;975;48.760;9.152;2022-11-30T12:50:39;9.40;99.90
1950;DHT22;975;48.760;9.152;2022-11-30T12:53:32;9.30;99.90
1950;DHT22;975;48.760;9.152;2022-11-30T12:56:28;9.30;99.90
1950;DHT22;975;48.760;9.152;2022-11-30T12:59:26;9.30;99.90
1950;DHT22;975;48.760;9.152;2022-11-30T13:05:40;9.10;99.90
1950;DHT22;975;48.760;9.152;2022-11-30T13:08:33;9.10;99.90
1950;DHT22;975;48.760;9.152;2022-11-30T13:11:30;9.00;99.90
1950;DHT22;975;48.760;9.152;2022-11-30T13:14:21;9.00;99.90
1950;DHT22;975;48.760;9.152;2022-11-30T13:17:16;8.90;99.90
1950;DHT22;975;48.760;9.152;2022-11-30T13:20:13;8.70;99.90
1950;DHT22;975;48.760;9.152;2022-11-30T13:23:07;8.60;99.90
1950;DHT22;975;48.760;9.152;2022-11-30T13:26:02;8.60;99.90
1950;DHT22;975;48.760;9.152;2022-11-30T13:29:03;8.60;99.90
1950;DHT22;975;48.760;9.152;2022-11-30T13:31:56;8.60;99.90
1950;DHT22;975;48.760;9.152;2022-11-30T13:34:50;8.60;99.90
1950;DHT22;975;48.760;9.152;2022-11-30T13:37:39;8.60;99.90
1950;DHT22;975;48.760;9.152;2022-11-30T13:40:27;8.60;99.90
1950;DHT22;975;48.760;9.152;2022-11-30T13:43:15;8.50;99.90
1950;DHT22;975;48.760;9.152;2022-11-30T13:46:12;8.50;99.90
1950;DHT22;975;48.760;9.152;2022-11-30T13:49:16;8.60;99.90
1950;DHT22;975;48.760;9.152;2022-11-30T13:52:05;8.70;99.90
1950;DHT22;975;48.760;9.152;2022-11-30T13:54:54;8.80;99.90
1950;DHT22;975;48.760;9.152;2022-11-30T13:58:04;8.90;99.90
1950;DHT22;975;48.760;9.152;2022-11-30T14:01:19;9.00;99.90
1950;DHT22;975;48.760;9.152;2022-11-30T14:04:29;9.00;99.90
1950;DHT22;975;48.760;9.152;2022-11-30T14:07:34;9.00;99.90
1950;DHT22;975;48.760;9.152;2022-11-30T14:10:30;9.00;99.90
1950;DHT22;975;48.760;9.152;2022-11-30T14:13:29;9.00;99.90
1950;DHT22;975;48.760;9.152;2022-11-30T14:16:22;8.80;99.90
1950;DHT22;975;48.760;9.152;2022-11-30T14:19:10;8.80;99.90
1950;DHT22;975;48.760;9.152;2022-11-30T14:21:58;8.80;99.90
1950;DHT22;975;48.760;9.152;2022-11-30T14:24:47;8.90;99.90
1950;DHT22;975;48.760;9.152;2022-11-30T14:27:37;9.00;99.90
1950;DHT22;975;48.760;9.152;2022-11-30T14:30:25;9.00;99.90
1950;DHT22;975;48.760;9.152;2022-11-30T14:33:16;9.00;99.90
1950;DHT22;975;48.760;9.152;2022-11-30T14:36:06;9.00;99.90
1950;DHT22;975;48.760;9.152;2022-11-30T14:38:54;9.00;99.90
1950;DHT22;975;48.760;9.152;2022-11-30T14:41:41;9.00;99.90
1950;DHT22;975;48.760;9.152;2022-11-30T14:44:35;9.00;99.90
1950;DHT22;975;48.760;9.152;2022-11-30T14:47:24;9.00;99.90
1950;DHT22;975;48.760;9.152;2022-11-30T14:50:21;8.80;99.90
1950;DHT22;975;48.760;9.152;2022-11-30T14:53:21;8.70;99.90
1950;DHT22;975;48.760;9.152;2022-11-30T14:56:18;8.60;99.90
1950;DHT22;975;48.760;9.152;2022-11-30T14:59:20;8.60;99.90
1950;DHT22;975;48.760;9.152;2022-11-30T15:02:18;8.60;99.90
1950;DHT22;975;48.760;9.152;2022-11-30T15:05:07;8.70;99.90
1950;DHT22;975;48.760;9.152;2022-11-30T15:07:55;8.60;99.90
1950;DHT22;975;48.760;9.152;2022-11-30T15:10:43;8.70;99.90
1950;DHT22;975;48.760;9.152;2022-11-30T15:13:30;8.80;99.90
1950;DHT22;975;48.760;9.152;2022-11-30T15:16:20;8.80;99.90
1950;DHT22;975;48.760;9.152;2022-11-30T15:19:20;8.80;99.90
1950;DHT22;975;48.760;9.152;2022-11-30T15:22:20;8.70;99.90
1950;DHT22;975;48.760;9.152;2022-11-30T15:25:11;8.70;99.90
1950;DHT22;975;48.760;9.152;2022-11-30T15:27:59;8.60;99.90
1950;DHT22;975;48.760;9.152;2022-11-30T15:30:47;8.70;99.90
1950;DHT22;975;48.760;9.152;2022-11-30T15:33:40;8.70;99.90
1950;DHT22;975;48.760;9.152;2022-11-30T15:36:33;8.70;99.90
1950;DHT22;975;48.760;9.152;2022-11-30T15:39:25;8.50;99.90
1950;DHT22;975;48.760;9.152;2022-11-30T15:42:19;8.40;99.90
1950;DHT22;975;48.760;9.152;2022-11-30T15:45:16;8.40;99.90
1950;DHT22;975;48.760;9.152;2022-11-30T15:48:26;8.40;99.90
1950;DHT22;975;48.760;9.152;2022-11-30T15:51:22;8.30;99.90
1950;DHT22;975;48.760;9.152;2022-11-30T15:54:13;8.30;99.90
1950;DHT22;975;48.760;9.152;2022-11-30T15:57:00;8.40;99.90
1950;DHT22;975;48.760;9.152;2022-11-30T16:00:04;8.50;99.90
1950;DHT22;975;48.760;9.152;2022-11-30T16:03:06;8.50;99.90
1950;DHT22;975;48.760;9.152;2022-11-30T16:05:56;8.50;99.90
1950;DHT22;975;48.760;9.152;2022-11-30T16:08:45;8.30;99.90
1950;DHT22;975;48.760;9.152;2022-11-30T16:11:35;8.10;99.90
1950;DHT22;975;48.760;9.152;2022-11-30T16:14:23;8.10;99.90
1950;DHT22;975;48.760;9.152;2022-11-30T16:17:11;8.10;99.90
1950;DHT22;975;48.760;9.152;2022-11-30T16:19:58;8.10;99.90
1950;DHT22;975;48.760;9.152;2022-11-30T16:22:46;8.00;99.90
1950;DHT22;975;48.760;9.152;2022-11-30T16:25:34;8.00;99.90
1950;DHT22;975;48.760;9.152;2022-11-30T16:28:23;8.00;99.90
1950;DHT22;975;48.760;9.152;2022-11-30T16:31:16;8.00;99.90
1950;DHT22;975;48.760;9.152;2022-11-30T16:34:04;8.10;99.90
1950;DHT22;975;48.760;9.152;2022-11-30T16:36:53;8.10;99.90
1950;DHT22;975;48.760;9.152;2022-11-30T16:39:41;8.20;99.90
1950;DHT22;975;48.760;9.152;2022-11-30T16:42:28;8.30;99.90
1950;DHT22;975;48.760;9.152;2022-11-30T16:45:20;8.30;99.90
1950;DHT22;975;48.760;9.152;2022-11-30T16:48:07;8.40;99.90
1950;DHT22;975;48.760;9.152;2022-11-30T16:50:56;8.50;99.90
1950;DHT22;975;48.760;9.152;2022-11-30T16:53:44;8.50;99.90
1950;DHT22;975;48.760;9.152;2022-11-30T16:56:31;8.50;99.90
1950;DHT22;975;48.760;9.152;2022-11-30T16:59:19;8.50;99.90
1950;DHT22;975;48.760;9.152;2022-11-30T17:02:16;8.50;99.90
1950;DHT22;975;48.760;9.152;2022-11-30T17:05:05;8.50;99.90
1950;DHT22;975;48.760;9.152;2022-11-30T17:07:53;8.50;99.90
1950;DHT22;975;48.760;9.152;2022-11-30T17:10:41;8.60;99.90
1950;DHT22;975;48.760;9.152;2022-11-30T17:13:29;8.60;99.90
1950;DHT22;975;48.760;9.152;2022-11-30T17:16:16;8.70;99.90
1950;DHT22;975;48.760;9.152;2022-11-30T17:19:05;8.50;99.90
1950;DHT22;975;48.760;9.152;2022-11-30T17:21:52;8.50;99.90
1950;DHT22;975;48.760;9.152;2022-11-30T17:24:40;8.50;99.90
1950;DHT22;975;48.760;9.152;2022-11-30T17:27:28;8.30;99.90
1950;DHT22;975;48.760;9.152;2022-11-30T17:30:17;8.20;99.90
1950;DHT22;975;48.760;9.152;2022-11-30T17:33:05;8.10;99.90
1950;DHT22;975;48.760;9.152;2022-11-30T17:35:54;8.10;99.90
1950;DHT22;975;48.760;9.152;2022-11-30T17:38:44;8.10;99.90
1950;DHT22;975;48.760;9.152;2022-11-30T17:41:31;8.10;99.90
1950;DHT22;975;48.760;9.152;2022-11-30T17:44:19;8.10;99.90
1950;DHT22;975;48.760;9.152;2022-11-30T17:47:06;8.20;99.90
1950;DHT22;975;48.760;9.152;2022-11-30T17:49:54;8.20;99.90
1950;DHT22;975;48.760;9.152;2022-11-30T17:52:43;8.30;99.90
1950;DHT22;975;48.760;9.152;2022-11-30T17:55:30;8.20;99.90
1950;DHT22;975;48.760;9.152;2022-11-30T17:58:18;8.00;99.90
1950;DHT22;975;48.760;9.152;2022-11-30T18:01:06;8.00;99.90
1950;DHT22;975;48.760;9.152;2022-11-30T18:03:54;8.00;99.90
1950;DHT22;975;48.760;9.152;2022-11-30T18:06:43;7.80;99.90
1950;DHT22;975;48.760;9.152;2022-11-30T18:09:32;7.90;99.90
1950;DHT22;975;48.760;9.152;2022-11-30T18:12:20;7.90;99.90
1950;DHT22;975;48.760;9.152;2022-11-30T18:15:08;8.00;99.90
1950;DHT22;975;48.760;9.152;2022-11-30T18:17:57;8.10;99.90
1950;DHT22;975;48.760;9.152;2022-11-30T18:20:46;8.10;99.90
1950;DHT22;975;48.760;9.152;2022-11-30T18:23:34;8.10;99.90
1950;DHT22;975;48.760;9.152;2022-11-30T18:26:24;8.00;99.90
1950;DHT22;975;48.760;9.152;2022-11-30T18:29:12;8.00;99.90
1950;DHT22;975;48.760;9.152;2022-11-30T18:32:00;8.00;99.90
1950;DHT22;975;48.760;9.152;2022-11-30T18:34:47;8.10;99.90
1950;DHT22;975;48.760;9.152;2022-11-30T18:37:35;8.10;99.90
1950;DHT22;975;48.760;9.152;2022-11-30T18:40:22;8.10;99.90
1950;DHT22;975;48.760;9.152;2022-11-30T18:43:11;7.90;99.90
1950;DHT22;975;48.760;9.152;2022-11-30T18:46:02;7.80;99.90
1950;DHT22;975;48.760;9.152;2022-11-30T18:48:51;7.70;99.90
1950;DHT22;975;48.760;9.152;2022-11-30T18:51:39;7.60;99.90
1950;DHT22;975;48.760;9.152;2022-11-30T18:54:27;7.70;99.90
1950;DHT22;975;48.760;9.152;2022-11-30T18:57:15;7.70;99.90
1950;DHT22;975;48.760;9.152;2022-11-30T19:00:06;7.70;99.90
1950;DHT22;975;48.760;9.152;2022-11-30T19:02:53;7.80;99.90
1950;DHT22;975;48.760;9.152;2022-11-30T19:05:41;7.80;99.90
1950;DHT22;975;48.760;9.152;2022-11-30T19:08:28;7.90;99.90
1950;DHT22;975;48.760;9.152;2022-11-30T19:11:16;7.90;99.90
1950;DHT22;975;48.760;9.152;2022-11-30T19:14:04;7.80;99.90
1950;DHT22;975;48.760;9.152;2022-11-30T19:16:53;7.70;99.90
1950;DHT22;975;48.760;9.152;2022-11-30T19:19:40;7.70;99.90
1950;DHT22;975;48.760;9.152;2022-11-30T19:22:28;7.70;99.90
1950;DHT22;975;48.760;9.152;2022-11-30T19:25:16;7.80;99.90
1950;DHT22;975;48.760;9.152;2022-11-30T19:28:07;7.90;99.90
1950;DHT22;975;48.760;9.152;2022-11-30T19:31:06;7.90;99.90
1950;DHT22;975;48.760;9.152;2022-11-30T19:33:55;7.90;99.90
1950;DHT22;975;48.760;9.152;2022-11-30T19:36:43;7.90;99.90
1950;DHT22;975;48.760;9.152;2022-11-30T19:39:30;7.90;99.90
1950;DHT22;975;48.760;9.152;2022-11-30T19:42:18;7.90;99.90
1950;DHT22;975;48.760;9.152;2022-11-30T19:45:07;7.80;99.90
1950;DHT22;975;48.760;9.152;2022-11-30T19:47:54;7.70;99.90
1950;DHT22;975;48.760;9.152;2022-11-30T19:50:43;7.50;99.90
1950;DHT22;975;48.760;9.152;2022-11-30T19:53:31;7.40;99.90
1950;DHT22;975;48.760;9.152;2022-11-30T19:56:19;7.20;99.90
1950;DHT22;975;48.760;9.152;2022-11-30T19:59:06;7.20;99.90
1950;DHT22;975;48.760;9.152;2022-11-30T20:01:54;7.20;99.90
1950;DHT22;975;48.760;9.152;2022-11-30T20:04:41;7.00;99.90
1950;DHT22;975;48.760;9.152;2022-11-30T20:07:30;6.90;99.90
1950;DHT22;975;48.760;9.152;2022-11-30T20:10:18;6.90;99.90
1950;DHT22;975;48.760;9.152;2022-11-30T20:13:06;6.80;99.90
1950;DHT22;975;48.760;9.152;2022-11-30T20:24:21;6.90;99.90
1950;DHT22;975;48.760;9.152;2022-11-30T20:27:09;7.00;99.90
1950;DHT22;975;48.760;9.152;2022-11-30T20:29:56;7.00;99.90
1950;DHT22;975;48.760;9.152;2022-11-30T20:32:44;6.80;99.90
1950;DHT22;975;48.760;9.152;2022-11-30T20:35:31;6.90;99.90
1950;DHT22;975;48.760;9.152;2022-11-30T20:38:21;6.80;99.90
1950;DHT22;975;48.760;9.152;2022-11-30T20:41:12;6.80;99.90
1950;DHT22;975;48.760;9.152;2022-11-30T20:44:00;6.80;99.90
1950;DHT22;975;48.760;9.152;2022-11-30T20:46:48;6.90;99.90
1950;DHT22;975;48.760;9.152;2022-11-30T20:49:36;6.90;99.90
1950;DHT22;975;48.760;9.152;2022-11-30T20:52:23;6.90;99.90
1950;DHT22;975;48.760;9.152;2022-11-30T21:11:59;6.80;99.90
1950;DHT22;975;48.760;9.152;2022-11-30T21:14:48;6.20;99.90
1950;DHT22;975;48.760;9.152;2022-11-30T21:17:36;6.20;99.90
1950;DHT22;975;48.760;9.152;2022-11-30T21:20:23;6.20;99.90
1950;DHT22;975;48.760;9.152;2022-11-30T21:23:11;6.20;99.90
1950;DHT22;975;48.760;9.152;2022-11-30T21:26:02;6.10;99.90
1950;DHT22;975;48.760;9.152;2022-11-30T21:28:51;6.10;99.90
1950;DHT22;975;48.760;9.152;2022-11-30T21:31:41;6.10;99.90
1950;DHT22;975;48.760;9.152;2022-11-30T21:34:28;6.00;99.90
1950;DHT22;975;48.760;9.152;2022-11-30T21:37:16;6.00;99.90
1950;DHT22;975;48.760;9.152;2022-11-30T21:40:04;5.90;99.90
1950;DHT22;975;48.760;9.152;2022-11-30T21:42:52;6.00;99.90
1950;DHT22;975;48.760;9.152;2022-11-30T21:45:40;6.10;99.90
1950;DHT22;975;48.760;9.152;2022-11-30T21:48:30;6.00;99.90
1950;DHT22;975;48.760;9.152;2022-11-30T21:51:20;6.00;99.90
1950;DHT22;975;48.760;9.152;2022-11-30T21:54:10;6.00;99.90
1950;DHT22;975;48.760;9.152;2022-11-30T21:56:58;6.00;99.90
1950;DHT22;975;48.760;9.152;2022-11-30T21:59:48;5.90;99.90
1950;DHT22;975;48.760;9.152;2022-11-30T22:02:36;5.90;99.90
